createdAt,value
2018-07-20T00:00:30.387Z,75.67
2018-07-20T00:01:30.387Z,75.67
2018-07-20T00:02:30.379Z,75.73
2018-07-20T00:03:30.380Z,75.67
2018-07-20T00:04:30.385Z,75.96
2018-07-20T00:05:30.436Z,76.11
2018-07-20T00:06:30.379Z,76.78
2018-07-20T00:07:30.380Z,76.78
2018-07-20T00:08:30.380Z,76.98
2018-07-20T00:09:30.377Z,77.08
2018-07-20T00:10:30.381Z,77.26
2018-07-20T00:11:30.381Z,77.26
2018-07-20T00:12:30.380Z,77.46
2018-07-20T00:13:30.381Z,77.46
2018-07-20T00:14:30.375Z,77.26
2018-07-20T00:15:30.375Z,77.23
2018-07-20T00:16:30.375Z,77.36
2018-07-20T00:17:30.374Z,77.36
2018-07-20T00:18:30.378Z,77.51
2018-07-20T00:19:30.377Z,77.23
2018-07-20T00:20:30.373Z,76.56
2018-07-20T00:21:30.371Z,76.56
2018-07-20T00:22:30.376Z,76.84
2018-07-20T00:23:30.378Z,77.81
2018-07-20T00:24:30.375Z,77.81
2018-07-20T00:25:30.372Z,77.71
2018-07-20T00:26:30.369Z,78.38
2018-07-20T00:27:30.369Z,77.71
2018-07-20T00:28:30.367Z,77.61
2018-07-20T00:29:30.367Z,77.90
2018-07-20T00:30:30.379Z,77.42
2018-07-20T00:31:30.370Z,77.23
2018-07-20T00:32:30.374Z,78.00
2018-07-20T00:33:30.369Z,78.28
2018-07-20T00:34:30.363Z,78.67
2018-07-20T00:35:30.364Z,78.67
2018-07-20T00:36:30.367Z,78.67
2018-07-20T00:37:30.369Z,78.77
2018-07-20T00:38:30.361Z,78.58
2018-07-20T00:39:30.360Z,78.48
2018-07-20T00:40:30.360Z,78.19
2018-07-20T00:41:30.357Z,79.30
2018-07-20T00:42:30.363Z,78.96
2018-07-20T00:43:30.360Z,79.15
2018-07-20T00:44:30.360Z,79.60
2018-07-20T00:45:30.359Z,79.21
2018-07-20T00:46:30.353Z,79.30
2018-07-20T00:47:30.353Z,79.88
2018-07-20T00:48:30.352Z,79.50
2018-07-20T00:49:30.350Z,79.69
2018-07-20T00:50:30.356Z,79.50
2018-07-20T00:51:30.356Z,79.50
2018-07-20T00:52:30.348Z,79.50
2018-07-20T00:53:30.346Z,80.17
2018-07-20T00:54:30.352Z,79.69
2018-07-20T00:55:30.352Z,79.88
2018-07-20T00:56:30.351Z,79.88
2018-07-20T00:57:30.347Z,79.98
2018-07-20T00:58:30.343Z,79.88
2018-07-20T00:59:30.343Z,80.07
2018-07-20T01:00:30.346Z,80.55
2018-07-20T01:01:30.340Z,80.65
2018-07-20T01:02:30.343Z,80.17
2018-07-20T01:03:30.343Z,80.27
2018-07-20T01:04:30.344Z,80.55
2018-07-20T01:05:30.392Z,80.13
2018-07-20T01:06:30.335Z,80.13
2018-07-20T01:07:30.334Z,80.27
2018-07-20T01:08:30.337Z,80.04
2018-07-20T01:09:30.335Z,80.32
2018-07-20T01:10:30.331Z,80.71
2018-07-20T01:11:30.330Z,80.71
2018-07-20T01:12:30.330Z,80.99
2018-07-20T01:13:30.326Z,80.80
2018-07-20T01:14:30.334Z,81.48
2018-07-20T01:15:30.330Z,81.67
2018-07-20T01:16:30.330Z,81.57
2018-07-20T01:17:30.329Z,81.28
2018-07-20T01:18:30.321Z,81.48
2018-07-20T01:19:30.321Z,81.48
2018-07-20T01:20:30.320Z,81.38
2018-07-20T01:21:30.320Z,81.67
2018-07-20T01:22:30.323Z,81.67
2018-07-20T01:23:30.324Z,81.38
2018-07-20T01:24:30.319Z,81.34
2018-07-20T01:25:30.312Z,82.53
2018-07-20T01:26:30.315Z,82.34
2018-07-20T01:27:30.314Z,81.96
2018-07-20T01:28:30.313Z,82.24
2018-07-20T01:29:30.312Z,82.15
2018-07-20T01:30:30.307Z,82.43
2018-07-20T01:31:30.304Z,82.87
2018-07-20T01:32:30.307Z,83.07
2018-07-20T01:33:30.302Z,83.16
2018-07-20T01:34:30.309Z,82.97
2018-07-20T01:35:30.305Z,82.97
2018-07-20T01:36:30.302Z,82.87
2018-07-20T01:37:30.301Z,82.97
2018-07-20T01:38:30.295Z,83.16
2018-07-20T01:39:30.296Z,83.45
2018-07-20T01:40:30.296Z,83.16
2018-07-20T01:41:30.294Z,83.45
2018-07-20T01:42:30.290Z,83.36
2018-07-20T01:43:30.291Z,83.54
2018-07-20T01:44:30.287Z,83.36
2018-07-20T01:45:30.285Z,83.36
2018-07-20T01:46:30.289Z,82.59
2018-07-20T01:47:30.288Z,83.07
2018-07-20T01:48:30.286Z,82.87
2018-07-20T01:49:30.285Z,83.07
2018-07-20T01:50:30.277Z,83.64
2018-07-20T01:51:30.276Z,83.26
2018-07-20T01:52:30.275Z,83.16
2018-07-20T01:53:30.275Z,83.26
2018-07-20T01:54:30.275Z,83.07
2018-07-20T01:55:30.276Z,83.07
2018-07-20T01:56:30.270Z,83.45
2018-07-20T01:57:30.267Z,83.54
2018-07-20T01:58:30.272Z,83.26
2018-07-20T01:59:30.269Z,83.36
2018-07-20T02:00:30.269Z,83.74
2018-07-20T02:01:30.266Z,83.31
2018-07-20T02:02:30.260Z,83.12
2018-07-20T02:03:30.258Z,83.89
2018-07-20T02:04:30.256Z,83.60
2018-07-20T02:05:30.255Z,83.89
2018-07-20T02:06:30.258Z,83.80
2018-07-20T02:07:30.255Z,83.80
2018-07-20T02:08:30.255Z,84.08
2018-07-20T02:09:30.253Z,84.18
2018-07-20T02:10:30.248Z,82.93
2018-07-20T02:11:30.245Z,83.89
2018-07-20T02:12:30.251Z,83.51
2018-07-20T02:13:30.248Z,84.37
2018-07-20T02:14:30.240Z,83.60
2018-07-20T02:15:30.238Z,84.27
2018-07-20T02:16:30.236Z,84.08
2018-07-20T02:17:30.234Z,83.98
2018-07-20T02:18:30.237Z,83.80
2018-07-20T02:19:30.235Z,83.98
2018-07-20T02:20:30.236Z,84.08
2018-07-20T02:21:30.238Z,83.60
2018-07-20T02:22:30.226Z,83.70
2018-07-20T02:23:30.224Z,83.80
2018-07-20T02:24:30.222Z,84.08
2018-07-20T02:25:30.222Z,83.70
2018-07-20T02:26:30.225Z,84.08
2018-07-20T02:27:30.221Z,84.52
2018-07-20T02:28:30.215Z,84.81
2018-07-20T02:29:30.248Z,84.61
2018-07-20T02:30:30.216Z,84.52
2018-07-20T02:31:30.216Z,84.91
2018-07-20T02:32:30.213Z,84.61
2018-07-20T02:33:30.210Z,84.61
2018-07-20T02:34:30.204Z,84.91
2018-07-20T02:35:30.205Z,85.28
2018-07-20T02:36:30.206Z,84.71
2018-07-20T02:37:30.199Z,85.00
2018-07-20T02:38:30.200Z,85.28
2018-07-20T02:39:30.199Z,85.58
2018-07-20T02:40:30.198Z,85.67
2018-07-20T02:41:30.197Z,85.48
2018-07-20T02:42:30.191Z,85.10
2018-07-20T02:43:30.189Z,85.28
2018-07-20T02:44:30.191Z,85.28
2018-07-20T02:45:30.189Z,85.00
2018-07-20T02:46:30.181Z,85.10
2018-07-20T02:47:30.181Z,85.10
2018-07-20T02:48:30.178Z,84.61
2018-07-20T02:49:30.175Z,84.52
2018-07-20T02:50:30.178Z,84.52
2018-07-20T02:51:30.178Z,84.91
2018-07-20T02:52:30.175Z,85.28
2018-07-20T02:53:30.174Z,85.48
2018-07-20T02:54:30.167Z,84.91
2018-07-20T02:55:30.164Z,85.67
2018-07-20T02:56:30.162Z,85.10
2018-07-20T02:57:30.159Z,85.58
2018-07-20T02:58:30.167Z,85.96
2018-07-20T02:59:30.165Z,85.96
2018-07-20T03:00:30.154Z,85.48
2018-07-20T03:01:30.152Z,85.38
2018-07-20T03:02:30.155Z,85.38
2018-07-20T03:03:30.153Z,85.58
2018-07-20T03:04:30.156Z,85.48
2018-07-20T03:05:30.148Z,85.92
2018-07-20T03:06:30.141Z,86.01
2018-07-20T03:07:30.140Z,85.44
2018-07-20T03:08:30.138Z,85.72
2018-07-20T03:09:30.135Z,86.01
2018-07-20T03:10:30.139Z,86.01
2018-07-20T03:11:30.137Z,85.44
2018-07-20T03:12:30.134Z,85.92
2018-07-20T03:13:30.132Z,86.11
2018-07-20T03:14:30.125Z,85.82
2018-07-20T03:15:30.123Z,85.82
2018-07-20T03:16:30.132Z,86.01
2018-07-20T03:17:30.124Z,85.92
2018-07-20T03:18:30.121Z,85.92
2018-07-20T03:19:30.115Z,86.01
2018-07-20T03:20:30.112Z,86.01
2018-07-20T03:21:30.112Z,85.92
2018-07-20T03:22:30.115Z,86.21
2018-07-20T03:23:30.114Z,85.82
2018-07-20T03:24:30.110Z,86.01
2018-07-20T03:25:30.111Z,85.92
2018-07-20T03:26:30.101Z,86.30
2018-07-20T03:27:30.099Z,86.49
2018-07-20T03:28:30.096Z,86.49
2018-07-20T03:29:30.095Z,86.58
2018-07-20T03:30:30.098Z,86.78
2018-07-20T03:31:30.093Z,86.68
2018-07-20T03:32:30.091Z,86.30
2018-07-20T03:33:30.086Z,86.49
2018-07-20T03:34:30.093Z,86.30
2018-07-20T03:35:30.085Z,87.07
2018-07-20T03:36:30.085Z,87.26
2018-07-20T03:37:30.083Z,87.26
2018-07-20T03:38:30.077Z,86.97
2018-07-20T03:39:30.070Z,86.78
2018-07-20T03:40:30.069Z,87.35
2018-07-20T03:41:30.069Z,86.78
2018-07-20T03:42:30.071Z,87.16
2018-07-20T03:43:30.067Z,87.16
2018-07-20T03:44:30.064Z,86.68
2018-07-20T03:45:30.063Z,86.97
2018-07-20T03:46:30.058Z,86.97
2018-07-20T03:47:30.053Z,86.97
2018-07-20T03:48:30.094Z,87.16
2018-07-20T03:49:30.054Z,87.26
2018-07-20T03:50:30.045Z,87.07
2018-07-20T03:51:30.045Z,87.35
2018-07-20T03:52:30.044Z,87.16
2018-07-20T03:53:30.041Z,87.26
2018-07-20T03:54:30.042Z,87.35
2018-07-20T03:55:30.042Z,87.55
2018-07-20T03:56:30.039Z,87.26
2018-07-20T03:57:30.037Z,87.84
2018-07-20T03:58:30.030Z,87.35
2018-07-20T03:59:30.026Z,87.55
2018-07-20T04:00:30.022Z,87.74
2018-07-20T04:01:30.023Z,86.97
2018-07-20T04:02:30.064Z,87.26
2018-07-20T04:03:30.021Z,86.97
2018-07-20T04:04:30.013Z,86.88
2018-07-20T04:05:30.010Z,87.74
2018-07-20T04:06:30.013Z,87.16
2018-07-20T04:07:30.011Z,87.16
2018-07-20T04:08:30.009Z,87.26
2018-07-20T04:09:30.006Z,86.78
2018-07-20T04:10:29.999Z,86.58
2018-07-20T04:11:29.997Z,86.78
2018-07-20T04:12:29.995Z,87.26
2018-07-20T04:13:29.993Z,86.88
2018-07-20T04:14:29.995Z,86.88
2018-07-20T04:15:29.992Z,87.16
2018-07-20T04:16:29.991Z,86.97
2018-07-20T04:17:29.989Z,86.97
2018-07-20T04:18:29.984Z,86.97
2018-07-20T04:19:29.979Z,87.11
2018-07-20T04:20:29.983Z,87.01
2018-07-20T04:21:29.980Z,86.54
2018-07-20T04:22:29.973Z,86.34
2018-07-20T04:23:29.973Z,86.34
2018-07-20T04:24:29.969Z,86.63
2018-07-20T04:25:29.966Z,86.44
2018-07-20T04:26:29.968Z,86.72
2018-07-20T04:27:29.967Z,86.72
2018-07-20T04:28:29.966Z,86.34
2018-07-20T04:29:29.968Z,86.54
2018-07-20T04:30:29.957Z,86.15
2018-07-20T04:31:29.955Z,86.58
2018-07-20T04:32:29.954Z,86.38
2018-07-20T04:33:29.951Z,85.91
2018-07-20T04:34:29.953Z,86.10
2018-07-20T04:35:29.953Z,85.81
2018-07-20T04:36:30.116Z,85.91
2018-07-20T04:37:29.943Z,85.52
2018-07-20T04:38:29.947Z,85.71
2018-07-20T04:39:29.946Z,84.89
2018-07-20T04:40:29.942Z,85.57
2018-07-20T04:41:29.940Z,84.60
2018-07-20T04:42:29.934Z,85.08
2018-07-20T04:43:29.933Z,84.60
2018-07-20T04:44:29.932Z,84.31
2018-07-20T04:45:29.931Z,84.31
2018-07-20T04:46:29.931Z,84.31
2018-07-20T04:47:29.934Z,84.03
2018-07-20T04:48:29.930Z,83.87
2018-07-20T04:49:29.930Z,84.03
2018-07-20T04:50:29.928Z,84.03
2018-07-20T04:51:29.921Z,83.97
2018-07-20T04:52:29.925Z,84.36
2018-07-20T04:53:29.921Z,84.07
2018-07-20T04:54:29.917Z,84.17
2018-07-20T04:55:29.914Z,83.69
2018-07-20T04:56:29.918Z,84.17
2018-07-20T04:57:29.912Z,83.87
2018-07-20T04:58:29.915Z,83.01
2018-07-20T04:59:29.913Z,83.69
2018-07-20T05:00:29.912Z,84.26
2018-07-20T05:01:29.910Z,83.78
2018-07-20T05:02:29.906Z,83.78
2018-07-20T05:03:29.905Z,84.17
2018-07-20T05:04:29.904Z,84.17
2018-07-20T05:05:29.903Z,84.36
2018-07-20T05:06:29.907Z,83.78
2018-07-20T05:07:29.905Z,83.87
2018-07-20T05:08:29.900Z,82.96
2018-07-20T05:09:29.898Z,82.48
2018-07-20T05:10:29.903Z,81.99
2018-07-20T05:11:30.001Z,81.32
2018-07-20T05:12:29.901Z,81.56
2018-07-20T05:13:29.902Z,80.83
2018-07-20T05:14:29.895Z,80.73
2018-07-20T05:15:29.896Z,80.35
2018-07-20T05:16:29.895Z,79.71
2018-07-20T05:17:29.895Z,78.75
2018-07-20T05:18:29.901Z,77.69
2018-07-20T05:19:29.899Z,77.34
2018-07-20T05:20:29.898Z,76.71
2018-07-20T05:21:29.898Z,76.13
2018-07-20T05:22:29.894Z,74.91
2018-07-20T05:23:29.896Z,74.82
2018-07-20T05:24:29.902Z,73.99
2018-07-20T05:25:29.899Z,73.44
2018-07-20T05:26:29.895Z,72.03
2018-07-20T05:27:29.897Z,71.00
2018-07-20T05:28:29.898Z,69.74
2018-07-20T05:29:29.898Z,69.10
2018-07-20T05:30:29.904Z,68.37
2018-07-20T05:31:29.905Z,67.49
2018-07-20T05:32:29.914Z,66.75
2018-07-20T05:33:29.909Z,66.02
2018-07-20T05:34:29.905Z,64.66
2018-07-20T05:35:29.908Z,63.43
2018-07-20T05:36:29.910Z,62.01
2018-07-20T05:37:29.911Z,61.33
2018-07-20T05:38:29.924Z,60.42
2018-07-20T05:39:29.920Z,59.91
2018-07-20T05:40:29.918Z,59.94
2018-07-20T05:41:29.921Z,59.06
2018-07-20T05:42:29.928Z,57.93
2018-07-20T05:43:29.931Z,57.31
2018-07-20T05:44:29.936Z,56.95
2018-07-20T05:45:29.944Z,55.98
2018-07-20T05:46:29.938Z,56.16
2018-07-20T05:47:29.940Z,55.32
2018-07-20T05:48:29.945Z,54.50
2018-07-20T05:49:29.949Z,54.43
2018-07-20T05:50:29.958Z,52.50
2018-07-20T05:51:29.963Z,51.58
2018-07-20T05:52:29.966Z,52.09
2018-07-20T05:53:30.028Z,51.43
2018-07-20T05:54:29.972Z,49.53
2018-07-20T05:55:29.978Z,48.16
2018-07-20T05:56:29.985Z,47.09
2018-07-20T05:57:29.990Z,46.48
2018-07-20T05:58:29.991Z,46.34
2018-07-20T05:59:29.996Z,47.17
2018-07-20T06:00:30.002Z,48.68
2018-07-20T06:01:30.010Z,49.54
2018-07-20T06:02:30.019Z,50.34
2018-07-20T06:03:30.026Z,50.60
2018-07-20T06:04:30.034Z,50.80
2018-07-20T06:05:30.075Z,51.87
2018-07-20T06:06:30.039Z,51.51
2018-07-20T06:07:30.047Z,50.75
2018-07-20T06:08:30.053Z,49.99
2018-07-20T06:09:30.058Z,49.22
2018-07-20T06:10:30.073Z,49.22
2018-07-20T06:11:30.076Z,49.51
2018-07-20T06:12:30.080Z,48.75
2018-07-20T06:13:30.085Z,49.07
2018-07-20T06:14:30.097Z,50.02
2018-07-20T06:15:30.105Z,50.65
2018-07-20T06:16:30.114Z,50.58
2018-07-20T06:17:30.120Z,49.61
2018-07-20T06:18:30.122Z,49.07
2018-07-20T06:19:30.131Z,48.71
2018-07-20T06:20:30.138Z,47.31
2018-07-20T06:21:30.154Z,47.61
2018-07-20T06:22:30.158Z,47.14
2018-07-20T06:23:30.174Z,47.05
2018-07-20T06:24:30.175Z,46.78
2018-07-20T06:25:30.182Z,46.50
2018-07-20T06:26:30.185Z,46.62
2018-07-20T06:27:30.194Z,46.18
2018-07-20T06:28:30.208Z,45.03
2018-07-20T06:29:30.219Z,43.88
2018-07-20T06:30:30.219Z,43.51
2018-07-20T06:31:30.229Z,43.04
2018-07-20T06:32:30.238Z,42.18
2018-07-20T06:33:30.245Z,41.11
2018-07-20T06:34:30.260Z,40.63
2018-07-20T06:35:30.268Z,40.51
2018-07-20T06:36:30.277Z,40.70
2018-07-20T06:37:30.286Z,40.53
2018-07-20T06:38:30.293Z,40.03
2018-07-20T06:39:30.301Z,39.84
2018-07-20T06:40:30.313Z,39.45
2018-07-20T06:41:30.321Z,39.07
2018-07-20T06:42:30.336Z,39.00
2018-07-20T06:43:30.347Z,38.78
2018-07-20T06:44:30.351Z,38.37
2018-07-20T06:45:30.361Z,38.27
2018-07-20T06:46:30.376Z,38.23
2018-07-20T06:47:30.386Z,38.13
2018-07-20T06:48:30.399Z,37.30
2018-07-20T06:49:30.408Z,38.09
2018-07-20T06:50:30.414Z,38.17
2018-07-20T06:51:30.438Z,38.37
2018-07-20T06:52:30.441Z,38.50
2018-07-20T06:53:30.446Z,38.62
2018-07-20T06:54:30.462Z,37.65
2018-07-20T06:55:30.473Z,36.88
2018-07-20T06:56:30.486Z,36.61
2018-07-20T06:57:30.502Z,36.41
2018-07-20T06:58:30.504Z,36.16
2018-07-20T06:59:30.515Z,36.16
2018-07-20T07:00:30.533Z,36.65
2018-07-20T07:01:30.545Z,37.26
2018-07-20T07:02:30.552Z,36.26
2018-07-20T07:03:30.567Z,36.28
2018-07-20T07:04:30.576Z,36.90
2018-07-20T07:05:30.588Z,37.46
2018-07-20T07:06:30.604Z,37.29
2018-07-20T07:07:30.617Z,38.01
2018-07-20T07:08:30.635Z,37.54
2018-07-20T07:09:30.682Z,36.90
2018-07-20T07:10:30.650Z,36.90
2018-07-20T07:11:30.663Z,37.48
2018-07-20T07:12:30.676Z,37.21
2018-07-20T07:13:30.687Z,36.93
2018-07-20T07:14:30.730Z,36.80
2018-07-20T07:15:30.719Z,36.60
2018-07-20T07:16:30.726Z,36.72
2018-07-20T07:17:30.738Z,37.13
2018-07-20T07:18:30.756Z,36.87
2018-07-20T07:19:30.768Z,36.10
2018-07-20T07:20:30.782Z,35.82
2018-07-20T07:21:30.795Z,34.86
2018-07-20T07:22:30.801Z,33.97
2018-07-20T07:23:30.817Z,33.98
2018-07-20T07:24:30.829Z,33.49
2018-07-20T07:25:30.840Z,33.41
2018-07-20T07:26:30.857Z,33.42
2018-07-20T07:27:30.870Z,33.10
2018-07-20T07:28:30.886Z,33.28
2018-07-20T07:29:30.898Z,33.48
2018-07-20T07:30:30.906Z,33.56
2018-07-20T07:31:30.922Z,33.98
2018-07-20T07:32:30.939Z,33.20
2018-07-20T07:33:30.952Z,32.92
2018-07-20T07:34:30.960Z,32.72
2018-07-20T07:35:30.975Z,32.56
2018-07-20T07:36:30.991Z,32.35
2018-07-20T07:37:31.001Z,31.59
2018-07-20T07:38:31.019Z,31.20
2018-07-20T07:39:31.033Z,30.58
2018-07-20T07:40:31.049Z,31.21
2018-07-20T07:41:31.061Z,32.24
2018-07-20T07:42:31.072Z,33.17
2018-07-20T07:43:31.088Z,32.70
2018-07-20T07:44:31.101Z,32.41
2018-07-20T07:45:31.115Z,32.18
2018-07-20T07:46:31.134Z,32.80
2018-07-20T07:47:31.149Z,33.03
2018-07-20T07:48:31.158Z,31.98
2018-07-20T07:49:31.175Z,31.98
2018-07-20T07:50:31.192Z,31.17
2018-07-20T07:51:31.205Z,31.19
2018-07-20T07:52:31.220Z,31.30
2018-07-20T07:53:31.233Z,31.02
2018-07-20T07:54:31.245Z,30.85
2018-07-20T07:55:31.258Z,30.18
2018-07-20T07:56:31.275Z,29.50
2018-07-20T07:57:31.288Z,29.10
2018-07-20T07:58:31.308Z,28.73
2018-07-20T07:59:31.323Z,28.46
2018-07-20T08:00:31.338Z,27.98
2018-07-20T08:01:31.353Z,27.50
2018-07-20T08:02:31.365Z,27.61
2018-07-20T08:03:31.384Z,27.26
2018-07-20T08:04:31.416Z,27.47
2018-07-20T08:05:31.413Z,28.39
2018-07-20T08:06:31.425Z,27.20
2018-07-20T08:07:31.441Z,27.30
2018-07-20T08:08:31.457Z,27.68
2018-07-20T08:09:31.471Z,26.59
2018-07-20T08:10:31.492Z,27.08
2018-07-20T08:11:31.512Z,27.30
2018-07-20T08:12:31.525Z,26.21
2018-07-20T08:13:31.541Z,26.80
2018-07-20T08:14:31.552Z,26.70
2018-07-20T08:15:31.573Z,26.81
2018-07-20T08:16:31.585Z,27.03
2018-07-20T08:17:31.600Z,25.66
2018-07-20T08:18:31.621Z,25.97
2018-07-20T08:19:31.639Z,25.70
2018-07-20T08:20:31.650Z,24.71
2018-07-20T08:21:31.669Z,24.44
2018-07-20T08:22:31.688Z,24.15
2018-07-20T08:23:31.705Z,23.47
2018-07-20T08:24:31.722Z,22.99
2018-07-20T08:25:31.736Z,22.30
2018-07-20T08:26:31.749Z,21.61
2018-07-20T08:27:31.769Z,20.70
2018-07-20T08:28:31.784Z,21.28
2018-07-20T08:29:31.916Z,21.66
2018-07-20T08:30:31.828Z,22.65
2018-07-20T08:31:31.841Z,22.14
2018-07-20T08:32:31.858Z,22.05
2018-07-20T08:33:31.876Z,22.16
2018-07-20T08:34:31.889Z,21.36
2018-07-20T08:35:31.907Z,21.66
2018-07-20T08:36:31.929Z,21.37
2018-07-20T08:37:31.946Z,21.39
2018-07-20T08:38:31.961Z,22.08
2018-07-20T08:39:31.979Z,22.22
2018-07-20T08:40:31.999Z,21.33
2018-07-20T08:41:32.012Z,21.34
2018-07-20T08:42:32.038Z,20.75
2018-07-20T08:43:32.053Z,19.85
2018-07-20T08:44:32.073Z,20.15
2018-07-20T08:45:32.090Z,19.65
2018-07-20T08:46:32.115Z,19.32
2018-07-20T08:47:32.123Z,19.51
2018-07-20T08:48:32.140Z,19.90
2018-07-20T08:49:32.163Z,19.79
2018-07-20T08:50:32.186Z,19.89
2018-07-20T08:51:32.204Z,20.10
2018-07-20T08:52:32.223Z,20.12
2018-07-20T08:53:32.236Z,19.92
2018-07-20T08:54:32.261Z,19.71
2018-07-20T08:55:32.279Z,20.23
2018-07-20T08:56:32.299Z,20.23
2018-07-20T08:57:32.317Z,19.82
2018-07-20T08:58:32.333Z,19.73
2018-07-20T08:59:32.352Z,19.74
2018-07-20T09:00:32.372Z,19.03
2018-07-20T09:01:32.390Z,19.02
2018-07-20T09:02:32.415Z,19.24
2018-07-20T09:03:32.485Z,19.85
2018-07-20T09:04:32.454Z,18.88
2018-07-20T09:05:32.473Z,20.25
2018-07-20T09:06:32.488Z,20.95
2018-07-20T09:07:32.508Z,21.37
2018-07-20T09:08:32.532Z,20.70
2018-07-20T09:09:32.551Z,20.10
2018-07-20T09:10:32.568Z,20.01
2018-07-20T09:11:32.586Z,20.18
2018-07-20T09:12:32.607Z,21.00
2018-07-20T09:13:32.698Z,20.62
2018-07-20T09:14:32.652Z,20.53
2018-07-20T09:15:32.671Z,19.64
2018-07-20T09:16:32.692Z,19.60
2018-07-20T09:17:32.712Z,19.21
2018-07-20T09:18:32.731Z,19.72
2018-07-20T09:19:32.749Z,20.81
2018-07-20T09:20:32.796Z,21.39
2018-07-20T09:21:32.788Z,21.61
2018-07-20T09:22:32.811Z,21.53
2018-07-20T09:23:32.831Z,21.45
2018-07-20T09:24:32.849Z,20.97
2018-07-20T09:25:32.867Z,20.97
2018-07-20T09:26:32.892Z,21.08
2018-07-20T09:27:32.912Z,20.89
2018-07-20T09:28:32.933Z,20.29
2018-07-20T09:29:32.951Z,20.01
2018-07-20T09:30:32.968Z,20.01
2018-07-20T09:31:32.988Z,19.81
2018-07-20T09:32:33.008Z,19.51
2018-07-20T09:33:33.027Z,18.99
2018-07-20T09:34:33.051Z,19.29
2018-07-20T09:35:33.074Z,19.66
2018-07-20T09:36:33.093Z,19.95
2018-07-20T09:37:33.113Z,20.73
2018-07-20T09:38:33.127Z,21.30
2018-07-20T09:39:33.149Z,21.37
2018-07-20T09:40:33.174Z,21.28
2018-07-20T09:41:33.192Z,21.67
2018-07-20T09:42:33.207Z,21.97
2018-07-20T09:43:33.227Z,21.87
2018-07-20T09:44:33.248Z,22.25
2018-07-20T09:45:33.266Z,22.53
2018-07-20T09:46:33.290Z,23.37
2018-07-20T09:47:33.309Z,24.11
2018-07-20T09:48:33.329Z,25.38
2018-07-20T09:49:33.347Z,26.03
2018-07-20T09:50:33.363Z,27.23
2018-07-20T09:51:33.381Z,27.42
2018-07-20T09:52:33.399Z,28.00
2018-07-20T09:53:33.420Z,28.21
2018-07-20T09:54:33.439Z,28.23
2018-07-20T09:55:33.460Z,27.38
2018-07-20T09:56:33.471Z,27.23
2018-07-20T09:57:33.487Z,25.59
2018-07-20T09:58:33.542Z,25.26
2018-07-20T09:59:33.587Z,25.14
2018-07-20T10:00:33.546Z,25.60
2018-07-20T10:01:33.562Z,26.57
2018-07-20T10:02:33.575Z,26.77
2018-07-20T10:03:33.592Z,26.94
2018-07-20T10:04:33.609Z,27.15
2018-07-20T10:05:33.627Z,28.02
2018-07-20T10:06:33.649Z,28.52
2018-07-20T10:07:33.675Z,28.16
2018-07-20T10:08:33.683Z,28.25
2018-07-20T10:09:33.700Z,27.98
2018-07-20T10:10:33.712Z,28.41
2018-07-20T10:11:33.733Z,27.23
2018-07-20T10:12:33.784Z,26.15
2018-07-20T10:13:33.768Z,26.18
2018-07-20T10:14:33.780Z,25.95
2018-07-20T10:15:33.796Z,26.26
2018-07-20T10:16:33.813Z,26.15
2018-07-20T10:17:33.829Z,27.64
2018-07-20T10:18:33.851Z,26.75
2018-07-20T10:19:33.875Z,27.16
2018-07-20T10:20:33.885Z,26.58
2018-07-20T10:21:33.901Z,26.18
2018-07-20T10:22:33.914Z,26.20
2018-07-20T10:23:33.930Z,25.52
2018-07-20T10:24:33.947Z,25.04
2018-07-20T10:25:34.023Z,24.46
2018-07-20T10:26:33.985Z,24.47
2018-07-20T10:27:34.002Z,24.29
2018-07-20T10:28:34.015Z,24.01
2018-07-20T10:29:34.031Z,23.93
2018-07-20T10:30:34.075Z,23.34
2018-07-20T10:31:34.071Z,23.46
2018-07-20T10:32:34.088Z,22.08
2018-07-20T10:33:34.108Z,21.66
2018-07-20T10:34:34.117Z,21.36
2018-07-20T10:35:34.136Z,21.15
2018-07-20T10:36:34.183Z,21.93
2018-07-20T10:37:34.171Z,22.24
2018-07-20T10:38:34.195Z,22.86
2018-07-20T10:39:34.212Z,22.66
2018-07-20T10:40:34.230Z,21.97
2018-07-20T10:41:34.247Z,21.39
2018-07-20T10:42:34.264Z,21.09
2018-07-20T10:43:34.279Z,21.50
2018-07-20T10:44:34.302Z,20.40
2018-07-20T10:45:34.320Z,19.96
2018-07-20T10:46:34.334Z,21.06
2018-07-20T10:47:34.353Z,21.73
2018-07-20T10:48:34.371Z,22.03
2018-07-20T10:49:34.390Z,22.52
2018-07-20T10:50:34.412Z,22.33
2018-07-20T10:51:34.431Z,22.01
2018-07-20T10:52:34.448Z,23.19
2018-07-20T10:53:34.468Z,23.50
2018-07-20T10:54:34.481Z,23.39
2018-07-20T10:55:34.498Z,23.37
2018-07-20T10:56:34.515Z,23.16
2018-07-20T10:57:34.532Z,23.96
2018-07-20T10:58:34.555Z,24.24
2018-07-20T10:59:34.571Z,23.96
2018-07-20T11:00:34.589Z,23.85
2018-07-20T11:01:34.674Z,24.16
2018-07-20T11:02:34.625Z,23.86
2018-07-20T11:03:34.646Z,23.47
2018-07-20T11:04:34.660Z,23.18
2018-07-20T11:05:34.675Z,23.28
2018-07-20T11:06:34.690Z,23.47
2018-07-20T11:07:34.710Z,23.46
2018-07-20T11:08:34.723Z,23.76
2018-07-20T11:09:34.739Z,24.26
2018-07-20T11:10:34.762Z,24.55
2018-07-20T11:11:34.779Z,23.96
2018-07-20T11:12:34.795Z,24.05
2018-07-20T11:13:34.811Z,23.46
2018-07-20T11:14:34.824Z,23.96
2018-07-20T11:15:34.841Z,23.96
2018-07-20T11:16:34.864Z,23.87
2018-07-20T11:17:34.910Z,24.28
2018-07-20T11:18:34.891Z,23.97
2018-07-20T11:19:34.909Z,23.76
2018-07-20T11:20:34.927Z,23.15
2018-07-20T11:21:34.943Z,23.45
2018-07-20T11:22:34.966Z,24.33
2018-07-20T11:23:34.982Z,24.54
2018-07-20T11:24:34.998Z,24.44
2018-07-20T11:25:35.015Z,24.75
2018-07-20T11:26:35.027Z,23.81
2018-07-20T11:27:35.043Z,24.49
2018-07-20T11:28:35.059Z,24.69
2018-07-20T11:29:35.076Z,25.08
2018-07-20T11:30:35.095Z,25.76
2018-07-20T11:31:35.112Z,26.84
2018-07-20T11:32:35.126Z,26.82
2018-07-20T11:33:35.139Z,26.81
2018-07-20T11:34:35.191Z,28.38
2018-07-20T11:35:35.173Z,28.58
2018-07-20T11:36:35.192Z,29.55
2018-07-20T11:37:35.204Z,29.05
2018-07-20T11:38:35.217Z,28.85
2018-07-20T11:39:35.228Z,28.64
2018-07-20T11:40:35.245Z,29.43
2018-07-20T11:41:35.259Z,29.43
2018-07-20T11:42:35.270Z,29.23
2018-07-20T11:43:35.284Z,29.33
2018-07-20T11:44:35.299Z,29.51
2018-07-20T11:45:35.308Z,29.39
2018-07-20T11:46:35.328Z,29.19
2018-07-20T11:47:35.341Z,29.19
2018-07-20T11:48:35.350Z,29.28
2018-07-20T11:49:35.361Z,29.68
2018-07-20T11:50:35.377Z,29.66
2018-07-20T11:51:35.390Z,29.85
2018-07-20T11:52:35.402Z,30.34
2018-07-20T11:53:35.412Z,31.14
2018-07-20T11:54:35.419Z,31.23
2018-07-20T11:55:35.433Z,31.03
2018-07-20T11:56:35.442Z,31.14
2018-07-20T11:57:35.454Z,31.14
2018-07-20T11:58:35.469Z,31.14
2018-07-20T11:59:35.481Z,30.75
2018-07-20T12:00:35.492Z,31.04
2018-07-20T12:01:35.504Z,30.35
2018-07-20T12:02:35.507Z,30.44
2018-07-20T12:03:35.518Z,30.32
2018-07-20T12:04:35.535Z,30.00
2018-07-20T12:05:35.543Z,30.58
2018-07-20T12:06:35.552Z,31.05
2018-07-20T12:07:35.561Z,31.85
2018-07-20T12:08:35.570Z,32.15
2018-07-20T12:09:35.579Z,33.03
2018-07-20T12:10:35.593Z,32.56
2018-07-20T12:11:35.603Z,32.26
2018-07-20T12:12:35.613Z,31.97
2018-07-20T12:13:35.622Z,31.97
2018-07-20T12:14:35.628Z,31.15
2018-07-20T12:15:35.638Z,31.01
2018-07-20T12:16:35.649Z,31.65
2018-07-20T12:17:35.657Z,31.74
2018-07-20T12:18:35.671Z,32.23
2018-07-20T12:19:35.680Z,32.92
2018-07-20T12:20:35.685Z,33.41
2018-07-20T12:21:35.694Z,33.90
2018-07-20T12:22:35.708Z,34.69
2018-07-20T12:23:35.716Z,35.58
2018-07-20T12:24:35.725Z,35.50
2018-07-20T12:25:35.733Z,35.11
2018-07-20T12:26:35.738Z,35.02
2018-07-20T12:27:35.748Z,35.21
2018-07-20T12:28:35.756Z,34.54
2018-07-20T12:29:35.765Z,34.25
2018-07-20T12:30:35.777Z,34.64
2018-07-20T12:31:35.786Z,34.54
2018-07-20T12:32:35.796Z,34.56
2018-07-20T12:33:35.803Z,34.06
2018-07-20T12:34:35.812Z,33.39
2018-07-20T12:35:35.816Z,33.10
2018-07-20T12:36:35.829Z,33.41
2018-07-20T12:37:35.837Z,33.41
2018-07-20T12:38:35.840Z,33.23
2018-07-20T12:39:35.848Z,32.92
2018-07-20T12:40:35.857Z,31.64
2018-07-20T12:41:35.865Z,31.74
2018-07-20T12:42:35.926Z,32.14
2018-07-20T12:43:35.886Z,32.02
2018-07-20T12:44:35.897Z,31.63
2018-07-20T12:45:35.902Z,32.02
2018-07-20T12:46:35.916Z,31.53
2018-07-20T12:47:35.915Z,31.82
2018-07-20T12:48:35.924Z,32.12
2018-07-20T12:49:35.931Z,32.23
2018-07-20T12:50:35.947Z,32.62
2018-07-20T12:51:35.952Z,32.62
2018-07-20T12:52:35.958Z,32.43